createdAt,value
2019-05-31T00:00:57.261Z,18.58
2019-05-31T00:02:51.033Z,18.59
2019-05-31T00:03:50.965Z,18.63
2019-05-31T00:05:42.846Z,18.62
2019-05-31T00:06:42.884Z,18.63
2019-05-31T00:08:35.870Z,18.63
2019-05-31T00:09:35.933Z,18.58
2019-05-31T00:11:28.939Z,18.66
2019-05-31T00:12:28.979Z,18.59
2019-05-31T00:14:22.010Z,18.58
2019-05-31T00:15:22.038Z,18.52
2019-05-31T00:17:15.040Z,18.53
2019-05-31T00:18:15.094Z,18.49
2019-05-31T00:20:08.104Z,18.38
2019-05-31T00:21:08.138Z,18.43
2019-05-31T00:23:01.131Z,18.31
2019-05-31T00:24:02.314Z,18.35
2019-05-31T00:25:54.328Z,18.26
2019-05-31T00:26:54.454Z,18.16
2019-05-31T00:28:47.242Z,18.13
2019-05-31T00:29:47.290Z,18.07
2019-05-31T00:31:40.278Z,18.07
2019-05-31T00:32:40.339Z,18.08
2019-05-31T00:34:33.349Z,18.10
2019-05-31T00:35:33.400Z,18.07
2019-05-31T00:37:26.385Z,18.01
2019-05-31T00:38:26.449Z,18.00
2019-05-31T00:40:20.953Z,17.98
2019-05-31T00:41:19.495Z,17.90
2019-05-31T00:43:12.486Z,17.94
2019-05-31T00:44:12.555Z,17.95
2019-05-31T00:46:05.840Z,18.00
2019-05-31T00:47:05.855Z,17.87
2019-05-31T00:48:59.489Z,17.89
2019-05-31T00:49:59.705Z,17.92
2019-05-31T00:51:52.150Z,17.95
2019-05-31T00:52:52.215Z,18.00
2019-05-31T00:54:45.223Z,18.01
2019-05-31T00:55:45.269Z,17.97
2019-05-31T00:57:38.288Z,17.85
2019-05-31T00:58:38.340Z,18.01
2019-05-31T01:00:31.347Z,17.92
2019-05-31T01:01:31.395Z,17.86
2019-05-31T01:03:24.384Z,17.90
2019-05-31T01:04:24.443Z,17.85
2019-05-31T01:06:17.452Z,17.95
2019-05-31T01:07:17.501Z,17.92
2019-05-31T01:09:10.498Z,17.95
2019-05-31T01:10:10.552Z,17.90
2019-05-31T01:12:03.952Z,17.97
2019-05-31T01:13:03.797Z,18.05
2019-05-31T01:14:57.845Z,18.10
2019-05-31T01:15:57.811Z,18.15
2019-05-31T01:17:49.653Z,18.16
2019-05-31T01:18:49.697Z,18.08
2019-05-31T01:20:42.704Z,18.05
2019-05-31T01:21:42.748Z,18.07
2019-05-31T01:23:35.756Z,18.03
2019-05-31T01:24:35.797Z,18.10
2019-05-31T01:26:28.789Z,18.05
2019-05-31T01:27:28.852Z,18.10
2019-05-31T01:29:21.855Z,18.19
2019-05-31T01:30:21.898Z,18.04
2019-05-31T01:32:14.883Z,18.08
2019-05-31T01:33:14.946Z,18.10
2019-05-31T01:35:08.226Z,18.10
2019-05-31T01:36:08.416Z,18.10
2019-05-31T01:38:02.196Z,18.11
2019-05-31T01:39:02.764Z,18.20
2019-05-31T01:40:54.048Z,18.22
2019-05-31T01:41:54.092Z,18.20
2019-05-31T01:43:47.081Z,18.18
2019-05-31T01:44:47.140Z,18.18
2019-05-31T01:46:40.154Z,18.31
2019-05-31T01:47:40.200Z,18.22
2019-05-31T01:49:33.194Z,18.33
2019-05-31T01:50:33.254Z,18.44
2019-05-31T01:52:26.271Z,18.29
2019-05-31T01:53:26.317Z,18.31
2019-05-31T01:55:19.303Z,18.37
2019-05-31T01:56:19.365Z,18.34
2019-05-31T01:58:12.738Z,18.44
2019-05-31T01:59:12.850Z,18.38
2019-05-31T02:01:05.954Z,18.40
2019-05-31T02:02:05.469Z,18.38
2019-05-31T02:03:58.468Z,18.33
2019-05-31T02:04:58.519Z,18.34
2019-05-31T02:06:51.506Z,18.31
2019-05-31T02:07:51.567Z,18.33
2019-05-31T02:09:44.584Z,18.41
2019-05-31T02:10:44.628Z,18.37
2019-05-31T02:12:37.650Z,18.33
2019-05-31T02:13:37.677Z,18.28
2019-05-31T02:15:32.569Z,18.22
2019-05-31T02:16:34.164Z,18.22
2019-05-31T02:18:23.734Z,18.20
2019-05-31T02:19:23.778Z,18.16
2019-05-31T02:21:16.858Z,18.23
2019-05-31T02:22:16.947Z,18.23
2019-05-31T02:24:10.971Z,18.16
2019-05-31T02:25:10.617Z,18.22
2019-05-31T02:27:02.866Z,18.15
2019-05-31T02:28:02.928Z,18.19
2019-05-31T02:29:55.934Z,18.29
2019-05-31T02:30:55.977Z,18.13
2019-05-31T02:32:48.963Z,18.23
2019-05-31T02:33:49.027Z,18.13
2019-05-31T02:35:42.030Z,18.28
2019-05-31T02:36:42.077Z,18.26
2019-05-31T02:38:35.067Z,18.29
2019-05-31T02:39:35.126Z,18.29
2019-05-31T02:41:28.139Z,18.26
2019-05-31T02:42:28.183Z,18.26
2019-05-31T02:44:21.181Z,18.28
2019-05-31T02:45:21.242Z,18.38
2019-05-31T02:47:16.015Z,18.31
2019-05-31T02:48:16.402Z,18.34
2019-05-31T02:50:08.410Z,18.33
2019-05-31T02:51:08.330Z,18.35
2019-05-31T02:53:00.335Z,18.29
2019-05-31T02:54:00.402Z,18.33
2019-05-31T02:55:53.404Z,18.38
2019-05-31T02:56:53.449Z,18.31
2019-05-31T02:58:46.435Z,18.43
2019-05-31T02:59:46.496Z,18.34
2019-05-31T03:01:39.505Z,18.35
2019-05-31T03:02:39.549Z,18.34
2019-05-31T03:04:32.556Z,18.33
2019-05-31T03:05:32.597Z,18.34
2019-05-31T03:07:25.605Z,18.29
2019-05-31T03:08:25.645Z,18.38
2019-05-31T03:10:20.790Z,18.34
2019-05-31T03:11:19.126Z,18.35
2019-05-31T03:13:12.637Z,18.29
2019-05-31T03:14:12.774Z,18.40
2019-05-31T03:16:08.028Z,18.33
2019-05-31T03:17:04.817Z,18.41
2019-05-31T03:18:57.813Z,18.37
2019-05-31T03:19:57.866Z,18.41
2019-05-31T03:21:50.873Z,18.35
2019-05-31T03:22:50.918Z,18.31
2019-05-31T03:24:43.906Z,18.33
2019-05-31T03:25:43.967Z,18.43
2019-05-31T03:27:36.978Z,18.45
2019-05-31T03:28:37.017Z,18.35
2019-05-31T03:30:36.508Z,18.47
2019-05-31T03:31:36.129Z,18.28
2019-05-31T03:33:34.956Z,18.45
2019-05-31T03:34:28.315Z,18.44
2019-05-31T03:36:20.868Z,18.38
2019-05-31T03:37:16.632Z,18.40
2019-05-31T03:39:09.198Z,18.38
2019-05-31T03:40:09.220Z,18.47
2019-05-31T03:42:02.203Z,18.44
2019-05-31T03:43:02.266Z,18.44
2019-05-31T03:44:55.280Z,18.43
2019-05-31T03:45:55.322Z,18.50
2019-05-31T03:47:48.312Z,18.40
2019-05-31T03:48:48.370Z,18.43
2019-05-31T03:50:41.378Z,18.43
2019-05-31T03:51:41.422Z,18.41
2019-05-31T03:53:34.427Z,18.40
2019-05-31T03:54:34.472Z,18.44
2019-05-31T03:56:27.762Z,18.44
2019-05-31T03:57:27.785Z,18.41
2019-05-31T03:59:21.443Z,18.41
2019-05-31T04:00:21.611Z,18.38
2019-05-31T04:02:15.581Z,18.40
2019-05-31T04:03:14.551Z,18.38
2019-05-31T04:05:06.633Z,18.47
2019-05-31T04:06:06.682Z,18.41
2019-05-31T04:07:59.692Z,18.41
2019-05-31T04:08:59.735Z,18.44
2019-05-31T04:10:52.721Z,18.49
2019-05-31T04:11:52.785Z,18.40
2019-05-31T04:13:45.788Z,18.44
2019-05-31T04:14:45.833Z,18.40
2019-05-31T04:16:49.602Z,18.40
2019-05-31T04:17:38.883Z,18.43
2019-05-31T04:19:31.893Z,18.44
2019-05-31T04:20:31.933Z,18.38
2019-05-31T04:22:25.726Z,18.44
2019-05-31T04:23:27.057Z,18.44
2019-05-31T04:25:19.268Z,18.40
2019-05-31T04:26:19.715Z,18.47
2019-05-31T04:28:11.026Z,18.45
2019-05-31T04:29:11.086Z,18.47
2019-05-31T04:31:04.092Z,18.49
2019-05-31T04:32:04.145Z,18.47
2019-05-31T04:33:57.141Z,18.44
2019-05-31T04:34:57.187Z,18.50
2019-05-31T04:36:50.204Z,18.35
2019-05-31T04:37:50.234Z,18.31
2019-05-31T04:39:43.240Z,18.43
2019-05-31T04:40:43.283Z,18.44
2019-05-31T04:42:36.287Z,18.34
2019-05-31T04:43:36.337Z,18.45
2019-05-31T04:45:29.330Z,18.45
2019-05-31T04:46:29.384Z,18.55
2019-05-31T04:48:24.634Z,18.55
2019-05-31T04:49:24.245Z,18.63
2019-05-31T04:51:16.244Z,18.59
2019-05-31T04:52:16.512Z,18.55
2019-05-31T04:54:10.067Z,18.47
2019-05-31T04:55:09.036Z,18.37
2019-05-31T04:57:02.054Z,18.35
2019-05-31T04:58:02.165Z,18.41
2019-05-31T04:59:55.068Z,18.34
2019-05-31T05:00:55.180Z,18.37
2019-05-31T05:02:48.138Z,18.28
2019-05-31T05:03:48.199Z,18.43
2019-05-31T05:05:41.167Z,18.41
2019-05-31T05:06:41.229Z,18.40
2019-05-31T05:08:34.234Z,18.37
2019-05-31T05:09:34.280Z,18.43
2019-05-31T05:11:27.290Z,18.35
2019-05-31T05:12:27.332Z,18.35
2019-05-31T05:14:20.671Z,18.23
2019-05-31T05:15:20.593Z,18.20
2019-05-31T05:17:28.509Z,18.28
2019-05-31T05:18:13.433Z,18.26
2019-05-31T05:20:06.423Z,18.29
2019-05-31T05:21:06.484Z,18.38
2019-05-31T05:22:59.488Z,18.25
2019-05-31T05:23:59.531Z,18.40
2019-05-31T05:25:52.537Z,18.28
2019-05-31T05:26:52.644Z,18.41
2019-05-31T05:28:45.585Z,18.26
2019-05-31T05:29:45.628Z,18.28
2019-05-31T05:31:38.633Z,18.34
2019-05-31T05:32:38.675Z,18.18
2019-05-31T05:34:31.662Z,18.25
2019-05-31T05:35:31.727Z,18.25
2019-05-31T05:37:24.729Z,18.28
2019-05-31T05:38:24.797Z,18.34
2019-05-31T05:40:18.621Z,18.35
2019-05-31T05:41:17.841Z,18.47
2019-05-31T05:43:10.893Z,18.47
2019-05-31T05:44:10.902Z,18.43
2019-05-31T05:46:03.875Z,18.45
2019-05-31T05:47:03.939Z,18.41
2019-05-31T05:48:57.493Z,18.47
2019-05-31T05:49:57.508Z,18.47
2019-05-31T05:51:50.494Z,18.29
2019-05-31T05:52:50.530Z,18.45
2019-05-31T05:54:43.537Z,18.37
2019-05-31T05:55:43.583Z,18.50
2019-05-31T05:57:36.567Z,18.55
2019-05-31T05:58:36.629Z,18.56
2019-05-31T06:00:29.869Z,18.68
2019-05-31T06:01:29.682Z,18.62
2019-05-31T06:03:24.340Z,18.78
2019-05-31T06:04:23.629Z,18.80
2019-05-31T06:06:15.740Z,18.93
2019-05-31T06:07:15.781Z,19.11
2019-05-31T06:09:08.786Z,19.44
2019-05-31T06:10:08.832Z,19.37
2019-05-31T06:12:01.826Z,19.52
2019-05-31T06:13:01.882Z,19.55
2019-05-31T06:14:54.891Z,19.94
2019-05-31T06:15:54.938Z,20.07
2019-05-31T06:18:00.388Z,20.31
2019-05-31T06:18:47.994Z,20.52
2019-05-31T06:20:40.994Z,20.72
2019-05-31T06:21:41.057Z,20.69
2019-05-31T06:23:34.044Z,20.88
2019-05-31T06:24:34.104Z,21.00
2019-05-31T06:26:27.121Z,21.64
2019-05-31T06:27:27.167Z,21.52
2019-05-31T06:29:20.153Z,21.57
2019-05-31T06:30:20.224Z,21.60
2019-05-31T06:32:13.234Z,21.73
2019-05-31T06:33:13.280Z,22.39
2019-05-31T06:35:06.277Z,21.83
2019-05-31T06:36:06.350Z,21.92
2019-05-31T06:37:59.349Z,21.64
2019-05-31T06:38:59.397Z,21.45
2019-05-31T06:40:52.393Z,21.48
2019-05-31T06:41:52.459Z,21.57
2019-05-31T06:43:45.469Z,21.69
2019-05-31T06:44:45.516Z,22.00
2019-05-31T06:46:38.508Z,22.29
2019-05-31T06:47:38.571Z,22.25
2019-05-31T06:49:32.565Z,22.30
2019-05-31T06:50:34.436Z,22.18
2019-05-31T06:52:26.092Z,21.88
2019-05-31T06:53:25.073Z,21.67
2019-05-31T06:55:17.711Z,21.43
2019-05-31T06:56:17.741Z,21.36
2019-05-31T06:58:10.733Z,21.21
2019-05-31T06:59:10.813Z,21.29
2019-05-31T07:01:03.820Z,21.57
2019-05-31T07:02:03.904Z,21.89
2019-05-31T07:03:56.848Z,22.13
2019-05-31T07:04:56.913Z,22.02
2019-05-31T07:06:49.936Z,22.55
2019-05-31T07:07:49.969Z,22.81
2019-05-31T07:09:42.963Z,22.59
2019-05-31T07:10:43.029Z,23.00
2019-05-31T07:12:36.046Z,23.36
2019-05-31T07:13:36.090Z,23.37
2019-05-31T07:15:29.825Z,22.66
2019-05-31T07:16:30.971Z,22.55
2019-05-31T07:18:34.480Z,22.28
2019-05-31T07:19:22.209Z,22.33
2019-05-31T07:21:15.207Z,22.28
2019-05-31T07:22:15.268Z,22.15
2019-05-31T07:24:08.276Z,21.98
2019-05-31T07:25:08.330Z,21.76
2019-05-31T07:27:01.446Z,21.80
2019-05-31T07:28:01.390Z,21.75
2019-05-31T07:29:54.410Z,22.08
2019-05-31T07:30:54.449Z,22.13
2019-05-31T07:32:47.448Z,22.54
2019-05-31T07:33:47.511Z,22.78
2019-05-31T07:35:40.541Z,23.10
2019-05-31T07:36:40.596Z,22.91
2019-05-31T07:38:34.483Z,22.65
2019-05-31T07:39:35.272Z,22.57
2019-05-31T07:41:26.631Z,22.87
2019-05-31T07:42:26.687Z,23.27
2019-05-31T07:44:19.708Z,23.83
2019-05-31T07:45:19.759Z,23.91
2019-05-31T07:47:12.786Z,25.32
2019-05-31T07:48:12.819Z,26.36
2019-05-31T07:50:05.839Z,27.51
2019-05-31T07:51:05.902Z,27.44
2019-05-31T07:52:58.994Z,28.78
2019-05-31T07:53:58.967Z,28.60
2019-05-31T07:55:51.992Z,28.39
2019-05-31T07:56:52.041Z,28.20
2019-05-31T07:58:57.465Z,28.30
2019-05-31T07:59:48.155Z,28.47
2019-05-31T08:01:38.202Z,27.54
2019-05-31T08:02:38.185Z,27.22
2019-05-31T08:04:31.214Z,27.82
2019-05-31T08:05:31.436Z,27.68
2019-05-31T08:07:24.770Z,27.40
2019-05-31T08:08:24.953Z,27.32
2019-05-31T08:10:17.357Z,27.78
2019-05-31T08:11:17.421Z,28.60
2019-05-31T08:13:10.454Z,30.15
2019-05-31T08:14:10.515Z,31.12
2019-05-31T08:16:03.520Z,31.92
2019-05-31T08:17:03.593Z,32.27
2019-05-31T08:18:56.628Z,31.25
2019-05-31T08:19:56.668Z,30.37
2019-05-31T08:21:49.700Z,29.44
2019-05-31T08:22:49.762Z,30.09
2019-05-31T08:24:42.789Z,31.31
2019-05-31T08:25:42.834Z,31.65
2019-05-31T08:27:36.502Z,32.34
2019-05-31T08:28:36.555Z,32.86
2019-05-31T08:30:30.254Z,33.50
2019-05-31T08:31:30.196Z,34.03
2019-05-31T08:33:22.041Z,34.13
2019-05-31T08:34:22.093Z,34.16
2019-05-31T08:36:15.115Z,33.80
2019-05-31T08:37:15.188Z,34.20
2019-05-31T08:39:08.776Z,34.43
2019-05-31T08:40:08.821Z,34.60
2019-05-31T08:42:01.828Z,33.07
2019-05-31T08:43:01.930Z,33.45
2019-05-31T08:45:05.922Z,33.99
2019-05-31T08:45:54.989Z,34.78
2019-05-31T08:47:48.111Z,33.99
2019-05-31T08:48:48.083Z,34.23
2019-05-31T08:50:41.126Z,34.43
2019-05-31T08:51:42.590Z,34.88
2019-05-31T08:53:35.591Z,34.38
2019-05-31T08:54:35.368Z,34.18
2019-05-31T08:56:27.337Z,33.57
2019-05-31T08:57:27.651Z,33.30
2019-05-31T08:59:20.417Z,33.52
2019-05-31T09:00:20.486Z,33.57
2019-05-31T09:02:13.565Z,33.68
2019-05-31T09:03:13.589Z,33.19
2019-05-31T09:05:06.609Z,33.04
2019-05-31T09:06:06.702Z,33.71
2019-05-31T09:07:59.771Z,34.21
2019-05-31T09:08:59.790Z,34.51
2019-05-31T09:10:52.812Z,34.50
2019-05-31T09:11:52.891Z,34.13
2019-05-31T09:13:45.954Z,34.24
2019-05-31T09:14:45.999Z,34.89
2019-05-31T09:16:39.057Z,34.74
2019-05-31T09:17:40.674Z,34.06
2019-05-31T09:19:33.129Z,33.49
2019-05-31T09:20:33.643Z,32.82
2019-05-31T09:22:25.227Z,33.23
2019-05-31T09:23:25.307Z,33.08
2019-05-31T09:25:18.344Z,33.34
2019-05-31T09:26:18.406Z,33.80
2019-05-31T09:28:11.447Z,34.20
2019-05-31T09:29:11.506Z,33.53
2019-05-31T09:31:04.558Z,32.63
2019-05-31T09:32:04.604Z,32.00
2019-05-31T09:33:57.655Z,30.65
2019-05-31T09:34:57.697Z,29.97
2019-05-31T09:36:50.713Z,29.02
2019-05-31T09:37:50.788Z,28.76
2019-05-31T09:39:45.415Z,28.44
2019-05-31T09:40:43.882Z,28.39
2019-05-31T09:42:37.425Z,28.17
2019-05-31T09:43:37.346Z,28.11
2019-05-31T09:45:30.889Z,28.10
2019-05-31T09:46:31.007Z,28.08
2019-05-31T09:48:23.601Z,28.29
2019-05-31T09:49:23.639Z,28.30
2019-05-31T09:51:16.649Z,28.02
2019-05-31T09:52:16.720Z,27.96
2019-05-31T09:54:09.759Z,28.01
2019-05-31T09:55:09.800Z,28.32
2019-05-31T09:57:02.830Z,28.01
2019-05-31T09:58:02.879Z,27.90
2019-05-31T09:59:55.916Z,27.60
2019-05-31T10:00:55.953Z,27.30
2019-05-31T10:02:48.965Z,27.20
2019-05-31T10:03:49.030Z,27.03
2019-05-31T10:05:42.575Z,26.97
2019-05-31T10:06:42.484Z,26.88
2019-05-31T10:08:37.313Z,26.83
2019-05-31T10:09:36.142Z,26.56
2019-05-31T10:11:28.241Z,26.60
2019-05-31T10:12:28.289Z,26.71
2019-05-31T10:14:21.294Z,26.21
2019-05-31T10:15:21.364Z,25.99
2019-05-31T10:17:14.401Z,26.03
2019-05-31T10:18:14.434Z,25.96
2019-05-31T10:20:07.472Z,25.88
2019-05-31T10:21:07.520Z,25.90
2019-05-31T10:23:00.516Z,26.03
2019-05-31T10:24:00.583Z,26.25
2019-05-31T10:25:53.610Z,26.26
2019-05-31T10:26:53.657Z,26.25
2019-05-31T10:28:46.800Z,26.21
2019-05-31T10:29:46.719Z,26.22
2019-05-31T10:31:39.858Z,26.10
2019-05-31T10:32:39.818Z,26.10
2019-05-31T10:34:34.634Z,26.00
2019-05-31T10:35:34.718Z,25.75
2019-05-31T10:37:25.867Z,25.91
2019-05-31T10:38:25.936Z,25.98
2019-05-31T10:40:18.992Z,26.22
2019-05-31T10:41:19.004Z,26.22
2019-05-31T10:43:12.026Z,26.52
2019-05-31T10:44:20.825Z,26.45
2019-05-31T10:46:06.627Z,26.48
2019-05-31T10:48:51.330Z,26.93
2019-05-31T10:49:51.280Z,26.99
2019-05-31T10:52:33.883Z,27.29
2019-05-31T10:53:33.979Z,27.25
2019-05-31T10:55:47.937Z,27.20
2019-05-31T10:56:40.276Z,27.12
2019-05-31T11:00:12.772Z,26.96
2019-05-31T11:01:12.653Z,26.92
2019-05-31T11:03:07.168Z,27.03
2019-05-31T11:04:07.267Z,27.11
2019-05-31T11:06:13.000Z,27.22
2019-05-31T11:07:13.030Z,27.20
2019-05-31T11:09:06.054Z,26.90
2019-05-31T11:10:06.100Z,27.20
2019-05-31T11:11:59.113Z,27.27
2019-05-31T11:12:59.191Z,27.29
2019-05-31T11:14:52.195Z,27.05
2019-05-31T11:15:52.232Z,26.96
2019-05-31T11:17:51.787Z,26.88
2019-05-31T11:18:45.964Z,26.90
2019-05-31T11:20:39.407Z,26.75
2019-05-31T11:21:39.402Z,26.89
2019-05-31T11:23:31.415Z,26.83
2019-05-31T11:24:31.472Z,26.89
2019-05-31T11:26:24.503Z,26.88
2019-05-31T11:27:24.610Z,26.85
2019-05-31T11:29:17.550Z,27.17
2019-05-31T11:30:17.645Z,27.00
2019-05-31T11:32:10.658Z,26.85
2019-05-31T11:33:10.688Z,26.88
2019-05-31T11:35:03.690Z,26.70
2019-05-31T11:36:03.756Z,26.59
2019-05-31T11:37:56.793Z,26.74
2019-05-31T11:38:56.824Z,26.71
2019-05-31T11:40:49.835Z,26.85
2019-05-31T11:41:54.204Z,26.74
2019-05-31T11:43:42.931Z,26.74
2019-05-31T11:44:43.823Z,26.78
2019-05-31T11:46:37.360Z,26.75
2019-05-31T11:47:37.119Z,26.73
2019-05-31T11:49:29.054Z,26.83
2019-05-31T11:50:29.203Z,27.11
2019-05-31T11:54:56.337Z,26.95
2019-05-31T11:55:37.174Z,26.93
2019-05-31T11:57:27.723Z,26.95
2019-05-31T11:58:27.814Z,26.92
2019-05-31T12:00:20.979Z,26.84
2019-05-31T12:01:21.805Z,26.80
2019-05-31T12:03:13.993Z,26.77
2019-05-31T12:04:14.017Z,26.89
2019-05-31T12:06:15.128Z,26.77
2019-05-31T12:07:07.442Z,26.88
2019-05-31T12:11:25.730Z,26.99
2019-05-31T12:12:25.864Z,26.90
2019-05-31T12:14:33.511Z,27.07
2019-05-31T12:19:14.858Z,27.36
2019-05-31T12:20:17.063Z,27.48
2019-05-31T12:22:07.899Z,27.39
2019-05-31T12:23:07.970Z,27.29
2019-05-31T12:25:01.003Z,27.11
2019-05-31T12:26:03.098Z,26.99
2019-05-31T12:27:54.070Z,26.89
2019-05-31T12:28:54.123Z,26.77
2019-05-31T12:30:47.935Z,26.63
2019-05-31T12:31:48.239Z,26.73
2019-05-31T12:33:40.226Z,26.56
2019-05-31T12:34:40.267Z,26.77
2019-05-31T12:36:33.281Z,27.02
2019-05-31T12:37:33.330Z,27.08
2019-05-31T12:39:26.369Z,27.49
2019-05-31T12:40:26.404Z,27.58
2019-05-31T12:42:19.403Z,27.47
2019-05-31T12:43:19.477Z,27.35
2019-05-31T12:45:12.519Z,27.29
2019-05-31T12:46:12.545Z,27.14
2019-05-31T12:48:05.553Z,27.12
2019-05-31T12:49:05.620Z,27.08
2019-05-31T12:50:58.651Z,27.12
2019-05-31T12:52:06.391Z,26.92
2019-05-31T12:53:52.776Z,26.83
2019-05-31T12:54:52.048Z,26.95
2019-05-31T12:56:45.771Z,26.93
2019-05-31T12:57:45.137Z,27.00
2019-05-31T12:59:37.869Z,26.84
2019-05-31T13:00:37.905Z,26.95
2019-05-31T13:02:30.907Z,26.95
2019-05-31T13:03:30.975Z,26.78
2019-05-31T13:05:24.061Z,26.58
2019-05-31T13:06:24.111Z,26.58
2019-05-31T13:08:17.129Z,26.77
2019-05-31T13:09:17.183Z,26.88
2019-05-31T13:11:10.212Z,26.85
2019-05-31T13:12:10.249Z,27.02
2019-05-31T13:14:03.283Z,27.20
2019-05-31T13:15:03.333Z,27.35
2019-05-31T13:16:56.330Z,27.33
2019-05-31T13:17:56.401Z,27.40
2019-05-31T13:19:49.944Z,27.20
2019-05-31T13:20:49.805Z,27.02
2019-05-31T13:22:43.700Z,27.33
2019-05-31T13:23:44.150Z,27.36
2019-05-31T13:25:35.553Z,27.17
2019-05-31T13:26:35.621Z,27.11
2019-05-31T13:28:28.619Z,27.12
2019-05-31T13:29:28.670Z,27.22
2019-05-31T13:31:21.696Z,27.48
2019-05-31T13:32:21.783Z,27.63
2019-05-31T13:34:15.439Z,27.39
2019-05-31T13:35:14.836Z,27.18
2019-05-31T13:37:07.833Z,27.00
2019-05-31T13:38:07.899Z,26.99
2019-05-31T13:40:00.917Z,27.07
2019-05-31T13:41:00.965Z,27.30
2019-05-31T13:42:54.247Z,27.47
2019-05-31T13:43:54.035Z,27.36
2019-05-31T13:45:47.573Z,27.33
2019-05-31T13:46:48.432Z,27.40
2019-05-31T13:48:40.106Z,27.40
2019-05-31T13:49:40.179Z,27.59
2019-05-31T13:51:33.196Z,27.64
2019-05-31T13:52:41.098Z,27.59
2019-05-31T13:54:26.284Z,27.49
2019-05-31T13:55:26.445Z,27.47
2019-05-31T13:57:19.392Z,27.52
2019-05-31T13:58:19.398Z,27.63
2019-05-31T14:00:12.444Z,27.44
2019-05-31T14:01:12.471Z,27.42
2019-05-31T14:03:05.487Z,27.39
2019-05-31T14:04:05.552Z,27.42
2019-05-31T14:05:58.568Z,27.51
2019-05-31T14:06:58.619Z,27.59
2019-05-31T14:08:51.884Z,27.48
2019-05-31T14:09:55.613Z,27.60
2019-05-31T14:11:44.715Z,27.70
2019-05-31T14:12:44.795Z,27.67
2019-05-31T14:14:37.776Z,27.74
2019-05-31T14:15:37.827Z,27.85
2019-05-31T14:17:30.846Z,27.75
2019-05-31T14:18:30.903Z,27.65
2019-05-31T14:20:23.934Z,27.08
2019-05-31T14:21:23.997Z,26.96
2019-05-31T14:23:16.976Z,26.90
2019-05-31T14:24:17.040Z,26.97
2019-05-31T14:26:10.135Z,26.75
2019-05-31T14:27:10.108Z,26.77
2019-05-31T14:29:03.129Z,26.83
2019-05-31T14:30:03.176Z,26.83
2019-05-31T14:31:56.248Z,26.68
2019-05-31T14:32:56.351Z,26.71
2019-05-31T14:34:50.185Z,26.52
2019-05-31T14:35:50.110Z,26.58
2019-05-31T14:37:42.328Z,26.80
2019-05-31T14:38:42.396Z,26.81
2019-05-31T14:40:35.422Z,26.83
2019-05-31T14:41:35.477Z,26.80
2019-05-31T14:43:28.471Z,26.81
2019-05-31T14:44:28.539Z,26.92
2019-05-31T14:46:21.555Z,26.92
2019-05-31T14:47:21.608Z,26.90
2019-05-31T14:49:30.031Z,26.75
2019-05-31T14:50:14.678Z,26.71
2019-05-31T14:52:07.697Z,26.71
2019-05-31T14:53:19.510Z,26.80
2019-05-31T14:55:00.779Z,26.88
2019-05-31T14:56:02.041Z,26.83
2019-05-31T14:57:53.814Z,26.85
2019-05-31T14:58:54.746Z,26.75
2019-05-31T15:00:46.906Z,26.74
2019-05-31T15:01:46.951Z,26.68
2019-05-31T15:03:39.959Z,26.26
2019-05-31T15:04:40.029Z,26.31
2019-05-31T15:06:33.048Z,26.25
2019-05-31T15:07:33.097Z,26.28
2019-05-31T15:09:26.127Z,26.18
2019-05-31T15:10:26.173Z,26.06
2019-05-31T15:12:19.188Z,25.96
2019-05-31T15:13:22.935Z,25.95
2019-05-31T15:15:12.274Z,26.19
2019-05-31T15:16:12.300Z,26.28
2019-05-31T15:18:05.328Z,26.22
2019-05-31T15:19:05.367Z,26.44
2019-05-31T15:20:58.827Z,26.44
2019-05-31T15:21:59.292Z,26.43
2019-05-31T15:23:52.561Z,26.38
2019-05-31T15:24:52.484Z,26.28
2019-05-31T15:26:44.540Z,26.18
2019-05-31T15:27:44.595Z,26.23
2019-05-31T15:29:37.597Z,26.21
2019-05-31T15:30:37.661Z,26.22
2019-05-31T15:32:39.827Z,26.22
2019-05-31T15:33:31.236Z,26.26
2019-05-31T15:35:25.755Z,26.31
2019-05-31T15:36:25.799Z,26.23
2019-05-31T15:38:18.818Z,26.22
2019-05-31T15:39:18.882Z,26.10
2019-05-31T15:41:11.867Z,26.06
2019-05-31T15:42:11.934Z,26.07
2019-05-31T15:44:05.027Z,25.96
2019-05-31T15:45:05.570Z,25.93
2019-05-31T15:47:06.243Z,26.00
2019-05-31T15:47:58.971Z,26.00
2019-05-31T15:49:54.934Z,26.09
2019-05-31T15:50:51.647Z,26.06
2019-05-31T15:52:44.646Z,25.99
2019-05-31T15:53:50.784Z,25.95
2019-05-31T15:55:49.654Z,25.72
2019-05-31T15:56:37.793Z,25.69
2019-05-31T15:58:30.798Z,25.50
2019-05-31T15:59:30.889Z,25.43
2019-05-31T16:01:23.893Z,25.41
2019-05-31T16:02:24.975Z,25.40
2019-05-31T16:04:16.949Z,25.43
2019-05-31T16:05:17.012Z,25.43
2019-05-31T16:07:10.027Z,25.31
2019-05-31T16:08:10.077Z,25.23
2019-05-31T16:10:03.163Z,25.35
2019-05-31T16:11:03.572Z,25.35
2019-05-31T16:12:56.607Z,25.28
2019-05-31T16:13:56.778Z,25.32
2019-05-31T16:15:49.228Z,25.21
2019-05-31T16:16:49.274Z,25.26
2019-05-31T16:18:42.279Z,25.25
2019-05-31T16:19:42.350Z,25.23
2019-05-31T16:21:35.373Z,25.38
2019-05-31T16:22:35.422Z,25.40
2019-05-31T16:24:28.421Z,25.41
2019-05-31T16:25:28.489Z,25.33
2019-05-31T16:27:21.498Z,25.32
2019-05-31T16:28:21.553Z,25.32
2019-05-31T16:30:14.636Z,25.26
2019-05-31T16:31:14.622Z,25.25
2019-05-31T16:33:08.722Z,25.26
2019-05-31T16:34:08.631Z,25.21
2019-05-31T16:36:00.691Z,25.23
2019-05-31T16:37:00.752Z,25.21
2019-05-31T16:38:53.775Z,25.13
2019-05-31T16:39:53.817Z,25.13
2019-05-31T16:41:46.841Z,25.08
2019-05-31T16:42:46.891Z,25.10
2019-05-31T16:44:39.886Z,25.11
2019-05-31T16:45:39.958Z,25.10
2019-05-31T16:47:32.976Z,25.14
2019-05-31T16:48:33.013Z,25.11
2019-05-31T16:50:26.039Z,25.06
2019-05-31T16:51:26.291Z,25.06
2019-05-31T16:53:19.097Z,25.01
2019-05-31T16:54:26.863Z,24.91
2019-05-31T16:56:13.006Z,24.88
2019-05-31T16:57:12.213Z,24.96
2019-05-31T16:59:05.239Z,24.73
2019-05-31T17:00:06.146Z,24.78
2019-05-31T17:01:58.287Z,24.74
2019-05-31T17:02:58.354Z,24.70
2019-05-31T17:04:51.378Z,24.68
2019-05-31T17:05:51.418Z,24.61
2019-05-31T17:07:44.438Z,24.51
2019-05-31T17:08:44.491Z,24.54
2019-05-31T17:10:37.504Z,24.38
2019-05-31T17:11:37.551Z,24.30
2019-05-31T17:13:30.592Z,24.33
2019-05-31T17:14:30.614Z,24.28
2019-05-31T17:16:23.608Z,24.29
2019-05-31T17:17:23.676Z,24.23
2019-05-31T17:19:16.690Z,24.28
2019-05-31T17:20:16.749Z,24.26
2019-05-31T17:22:11.013Z,24.13
2019-05-31T17:23:10.665Z,24.03
2019-05-31T17:25:04.707Z,24.11
2019-05-31T17:26:04.765Z,24.05
2019-05-31T17:27:57.765Z,23.98
2019-05-31T17:28:57.827Z,23.93
2019-05-31T17:30:50.889Z,23.96
2019-05-31T17:31:50.906Z,23.96
2019-05-31T17:33:46.859Z,23.87
2019-05-31T17:34:43.951Z,23.95
2019-05-31T17:36:36.969Z,24.01
2019-05-31T17:37:37.022Z,23.95
2019-05-31T17:39:30.012Z,23.95
2019-05-31T17:40:30.117Z,23.93
2019-05-31T17:42:23.120Z,23.96
2019-05-31T17:43:23.142Z,23.91
2019-05-31T17:45:16.151Z,23.80
2019-05-31T17:46:16.224Z,23.84
2019-05-31T17:48:10.403Z,23.77
2019-05-31T17:49:10.205Z,23.77
2019-05-31T17:51:02.318Z,23.84
2019-05-31T17:52:02.363Z,23.91
2019-05-31T17:53:55.362Z,23.77
2019-05-31T17:54:58.224Z,23.74
2019-05-31T17:56:48.438Z,23.77
2019-05-31T17:57:48.505Z,23.76
2019-05-31T17:59:41.475Z,23.76
2019-05-31T18:00:41.544Z,23.73
2019-05-31T18:02:34.559Z,23.69
2019-05-31T18:03:34.607Z,23.69
2019-05-31T18:05:27.605Z,23.63
2019-05-31T18:06:27.676Z,23.51
2019-05-31T18:08:20.679Z,23.55
2019-05-31T18:09:20.732Z,23.54
2019-05-31T18:11:14.201Z,23.47
2019-05-31T18:12:14.790Z,23.51
2019-05-31T18:14:06.903Z,23.32
2019-05-31T18:15:06.852Z,23.25
2019-05-31T18:16:59.860Z,23.15
2019-05-31T18:17:59.917Z,23.13
2019-05-31T18:19:52.908Z,23.13
2019-05-31T18:20:52.974Z,23.15
2019-05-31T18:22:45.980Z,23.17
2019-05-31T18:23:46.048Z,23.17
2019-05-31T18:25:39.069Z,23.02
2019-05-31T18:26:39.132Z,23.03
2019-05-31T18:28:32.150Z,23.00
2019-05-31T18:29:32.194Z,22.98
2019-05-31T18:31:25.213Z,22.91
2019-05-31T18:32:25.263Z,22.98
2019-05-31T18:34:18.634Z,22.80
2019-05-31T18:35:21.721Z,22.81
2019-05-31T18:37:13.450Z,22.76
2019-05-31T18:38:11.999Z,22.75
2019-05-31T18:40:04.392Z,22.66
2019-05-31T18:41:04.461Z,22.57
2019-05-31T18:42:57.472Z,22.50
2019-05-31T18:43:57.514Z,22.59
2019-05-31T18:45:50.511Z,22.50
2019-05-31T18:46:50.576Z,22.59